sensor_id;sensor_type;location;lat;lon;timestamp;P1;durP1;ratioP1;P2;durP2;ratioP2
23561;SDS011;11959;49.418;8.728;2022-08-19T00:00:11;18.42;;;15.77;;
23561;SDS011;11959;49.418;8.728;2022-08-19T00:02:39;18.17;;;16.08;;
23561;SDS011;11959;49.418;8.728;2022-08-19T00:05:06;16.95;;;15.25;;
23561;SDS011;11959;49.418;8.728;2022-08-19T00:07:34;17.67;;;14.68;;
23561;SDS011;11959;49.418;8.728;2022-08-19T00:10:01;18.50;;;15.98;;
23561;SDS011;11959;49.418;8.728;2022-08-19T00:12:27;17.60;;;15.18;;
23561;SDS011;11959;49.418;8.728;2022-08-19T00:14:53;18.23;;;15.77;;
23561;SDS011;11959;49.418;8.728;2022-08-19T00:17:19;17.13;;;14.90;;
23561;SDS011;11959;49.418;8.728;2022-08-19T00:19:45;18.65;;;16.42;;
23561;SDS011;11959;49.418;8.728;2022-08-19T00:22:11;18.42;;;16.23;;
23561;SDS011;11959;49.418;8.728;2022-08-19T00:24:37;21.42;;;16.60;;
23561;SDS011;11959;49.418;8.728;2022-08-19T00:27:03;22.40;;;16.27;;
23561;SDS011;11959;49.418;8.728;2022-08-19T00:29:30;22.38;;;17.73;;
23561;SDS011;11959;49.418;8.728;2022-08-19T00:31:56;20.17;;;17.00;;
23561;SDS011;11959;49.418;8.728;2022-08-19T00:34:23;20.75;;;16.58;;
23561;SDS011;11959;49.418;8.728;2022-08-19T00:36:53;20.33;;;16.38;;
23561;SDS011;11959;49.418;8.728;2022-08-19T00:39:19;18.77;;;15.30;;
23561;SDS011;11959;49.418;8.728;2022-08-19T00:41:45;18.65;;;16.20;;
23561;SDS011;11959;49.418;8.728;2022-08-19T00:44:16;21.63;;;16.52;;
23561;SDS011;11959;49.418;8.728;2022-08-19T00:46:46;19.48;;;15.95;;
23561;SDS011;11959;49.418;8.728;2022-08-19T00:49:23;17.40;;;15.52;;
23561;SDS011;11959;49.418;8.728;2022-08-19T00:51:54;17.80;;;15.68;;
23561;SDS011;11959;49.418;8.728;2022-08-19T00:54:24;17.17;;;15.38;;
23561;SDS011;11959;49.418;8.728;2022-08-19T00:56:50;17.70;;;15.48;;
23561;SDS011;11959;49.418;8.728;2022-08-19T00:59:16;18.95;;;15.75;;
23561;SDS011;11959;49.418;8.728;2022-08-19T01:01:43;19.00;;;16.40;;
23561;SDS011;11959;49.418;8.728;2022-08-19T01:04:10;21.50;;;17.27;;
23561;SDS011;11959;49.418;8.728;2022-08-19T01:06:37;19.60;;;17.50;;
23561;SDS011;11959;49.418;8.728;2022-08-19T01:09:04;18.33;;;16.17;;
23561;SDS011;11959;49.418;8.728;2022-08-19T01:11:31;19.35;;;16.40;;
23561;SDS011;11959;49.418;8.728;2022-08-19T01:14:00;19.27;;;16.30;;
23561;SDS011;11959;49.418;8.728;2022-08-19T01:16:26;19.00;;;16.15;;
23561;SDS011;11959;49.418;8.728;2022-08-19T01:18:54;17.85;;;15.73;;
23561;SDS011;11959;49.418;8.728;2022-08-19T01:23:46;18.80;;;16.02;;
23561;SDS011;11959;49.418;8.728;2022-08-19T01:26:19;19.33;;;16.33;;
23561;SDS011;11959;49.418;8.728;2022-08-19T01:28:47;18.70;;;15.73;;
23561;SDS011;11959;49.418;8.728;2022-08-19T01:31:17;17.98;;;15.55;;
23561;SDS011;11959;49.418;8.728;2022-08-19T01:33:46;18.70;;;16.75;;
23561;SDS011;11959;49.418;8.728;2022-08-19T01:36:15;22.13;;;17.10;;
23561;SDS011;11959;49.418;8.728;2022-08-19T01:38:47;20.25;;;17.73;;
23561;SDS011;11959;49.418;8.728;2022-08-19T01:41:14;20.10;;;17.83;;
23561;SDS011;11959;49.418;8.728;2022-08-19T01:43:42;21.90;;;17.80;;
23561;SDS011;11959;49.418;8.728;2022-08-19T01:46:08;22.23;;;18.83;;
23561;SDS011;11959;49.418;8.728;2022-08-19T01:48:34;25.45;;;19.67;;
23561;SDS011;11959;49.418;8.728;2022-08-19T01:51:04;22.50;;;18.25;;
23561;SDS011;11959;49.418;8.728;2022-08-19T01:53:30;24.42;;;18.67;;
23561;SDS011;11959;49.418;8.728;2022-08-19T01:55:56;24.05;;;18.80;;
23561;SDS011;11959;49.418;8.728;2022-08-19T01:58:23;19.20;;;16.05;;
23561;SDS011;11959;49.418;8.728;2022-08-19T02:00:55;18.75;;;15.55;;
23561;SDS011;11959;49.418;8.728;2022-08-19T02:03:22;19.58;;;15.70;;
23561;SDS011;11959;49.418;8.728;2022-08-19T02:05:48;20.35;;;16.33;;
23561;SDS011;11959;49.418;8.728;2022-08-19T02:08:24;17.05;;;14.98;;
23561;SDS011;11959;49.418;8.728;2022-08-19T02:10:55;17.88;;;15.60;;
23561;SDS011;11959;49.418;8.728;2022-08-19T02:13:22;19.08;;;17.08;;
23561;SDS011;11959;49.418;8.728;2022-08-19T02:15:50;17.85;;;15.93;;
23561;SDS011;11959;49.418;8.728;2022-08-19T02:18:16;18.75;;;16.35;;
23561;SDS011;11959;49.418;8.728;2022-08-19T02:20:42;17.92;;;15.73;;
23561;SDS011;11959;49.418;8.728;2022-08-19T02:23:09;19.05;;;16.67;;
23561;SDS011;11959;49.418;8.728;2022-08-19T02:25:36;20.60;;;16.95;;
23561;SDS011;11959;49.418;8.728;2022-08-19T02:28:02;18.42;;;15.55;;
23561;SDS011;11959;49.418;8.728;2022-08-19T02:30:29;19.98;;;16.38;;
23561;SDS011;11959;49.418;8.728;2022-08-19T02:32:55;27.02;;;18.58;;
23561;SDS011;11959;49.418;8.728;2022-08-19T02:35:20;20.17;;;16.23;;
23561;SDS011;11959;49.418;8.728;2022-08-19T02:37:46;19.75;;;17.00;;
23561;SDS011;11959;49.418;8.728;2022-08-19T02:40:31;19.67;;;16.58;;
23561;SDS011;11959;49.418;8.728;2022-08-19T02:42:59;19.50;;;16.27;;
23561;SDS011;11959;49.418;8.728;2022-08-19T02:45:27;19.35;;;16.70;;
23561;SDS011;11959;49.418;8.728;2022-08-19T02:47:56;19.90;;;17.65;;
23561;SDS011;11959;49.418;8.728;2022-08-19T02:50:22;23.45;;;18.23;;
23561;SDS011;11959;49.418;8.728;2022-08-19T02:52:48;23.52;;;18.20;;
23561;SDS011;11959;49.418;8.728;2022-08-19T02:55:13;20.15;;;16.77;;
23561;SDS011;11959;49.418;8.728;2022-08-19T02:57:39;21.35;;;17.40;;
23561;SDS011;11959;49.418;8.728;2022-08-19T03:00:07;23.65;;;17.95;;
23561;SDS011;11959;49.418;8.728;2022-08-19T03:02:37;22.10;;;17.90;;
23561;SDS011;11959;49.418;8.728;2022-08-19T03:05:03;21.75;;;18.27;;
23561;SDS011;11959;49.418;8.728;2022-08-19T03:07:29;24.95;;;18.65;;
23561;SDS011;11959;49.418;8.728;2022-08-19T03:09:55;22.27;;;18.00;;
23561;SDS011;11959;49.418;8.728;2022-08-19T03:12:21;24.00;;;18.73;;
23561;SDS011;11959;49.418;8.728;2022-08-19T03:14:47;21.65;;;17.98;;
23561;SDS011;11959;49.418;8.728;2022-08-19T03:17:12;26.52;;;20.00;;
23561;SDS011;11959;49.418;8.728;2022-08-19T03:19:38;28.00;;;21.23;;
23561;SDS011;11959;49.418;8.728;2022-08-19T03:22:04;27.35;;;19.00;;
23561;SDS011;11959;49.418;8.728;2022-08-19T03:24:31;25.38;;;18.63;;
23561;SDS011;11959;49.418;8.728;2022-08-19T03:26:57;22.67;;;18.15;;
23561;SDS011;11959;49.418;8.728;2022-08-19T03:29:24;21.60;;;16.65;;
23561;SDS011;11959;49.418;8.728;2022-08-19T03:31:53;27.20;;;19.73;;
23561;SDS011;11959;49.418;8.728;2022-08-19T03:34:24;21.98;;;16.75;;
23561;SDS011;11959;49.418;8.728;2022-08-19T03:36:52;20.70;;;17.45;;
23561;SDS011;11959;49.418;8.728;2022-08-19T03:39:20;22.42;;;17.95;;
23561;SDS011;11959;49.418;8.728;2022-08-19T03:41:47;20.83;;;17.15;;
23561;SDS011;11959;49.418;8.728;2022-08-19T03:44:17;19.83;;;15.90;;
23561;SDS011;11959;49.418;8.728;2022-08-19T03:46:48;18.17;;;15.55;;
23561;SDS011;11959;49.418;8.728;2022-08-19T03:49:16;19.83;;;16.27;;
23561;SDS011;11959;49.418;8.728;2022-08-19T03:51:43;19.85;;;16.55;;
23561;SDS011;11959;49.418;8.728;2022-08-19T03:54:10;19.98;;;16.77;;
23561;SDS011;11959;49.418;8.728;2022-08-19T03:56:38;20.58;;;16.65;;
23561;SDS011;11959;49.418;8.728;2022-08-19T03:59:05;24.90;;;19.20;;
23561;SDS011;11959;49.418;8.728;2022-08-19T04:01:34;20.95;;;17.13;;
23561;SDS011;11959;49.418;8.728;2022-08-19T04:04:00;23.75;;;17.77;;
23561;SDS011;11959;49.418;8.728;2022-08-19T04:06:28;20.58;;;17.13;;
23561;SDS011;11959;49.418;8.728;2022-08-19T04:08:55;22.40;;;18.30;;
23561;SDS011;11959;49.418;8.728;2022-08-19T04:11:27;21.52;;;17.55;;
23561;SDS011;11959;49.418;8.728;2022-08-19T04:13:56;22.33;;;18.52;;
23561;SDS011;11959;49.418;8.728;2022-08-19T04:16:23;24.63;;;18.52;;
23561;SDS011;11959;49.418;8.728;2022-08-19T04:18:53;22.13;;;18.30;;
23561;SDS011;11959;49.418;8.728;2022-08-19T04:21:21;24.98;;;18.95;;
23561;SDS011;11959;49.418;8.728;2022-08-19T04:23:49;22.17;;;18.90;;
23561;SDS011;11959;49.418;8.728;2022-08-19T04:26:16;25.20;;;19.35;;
23561;SDS011;11959;49.418;8.728;2022-08-19T04:28:44;21.55;;;17.80;;
23561;SDS011;11959;49.418;8.728;2022-08-19T04:31:18;20.35;;;16.98;;
23561;SDS011;11959;49.418;8.728;2022-08-19T04:33:46;20.90;;;17.60;;
23561;SDS011;11959;49.418;8.728;2022-08-19T04:36:20;24.00;;;19.52;;
23561;SDS011;11959;49.418;8.728;2022-08-19T04:38:48;22.35;;;18.30;;
23561;SDS011;11959;49.418;8.728;2022-08-19T04:41:17;21.98;;;18.40;;
23561;SDS011;11959;49.418;8.728;2022-08-19T04:44:01;22.75;;;17.92;;
23561;SDS011;11959;49.418;8.728;2022-08-19T04:46:27;21.65;;;17.80;;
23561;SDS011;11959;49.418;8.728;2022-08-19T04:48:55;23.50;;;18.90;;
23561;SDS011;11959;49.418;8.728;2022-08-19T04:51:21;22.65;;;18.05;;
23561;SDS011;11959;49.418;8.728;2022-08-19T04:53:47;23.15;;;18.58;;
23561;SDS011;11959;49.418;8.728;2022-08-19T04:56:13;22.88;;;17.92;;
23561;SDS011;11959;49.418;8.728;2022-08-19T04:58:42;21.20;;;16.35;;
23561;SDS011;11959;49.418;8.728;2022-08-19T05:01:11;17.88;;;15.43;;
23561;SDS011;11959;49.418;8.728;2022-08-19T05:03:38;19.60;;;15.90;;
23561;SDS011;11959;49.418;8.728;2022-08-19T05:06:07;21.48;;;17.15;;
23561;SDS011;11959;49.418;8.728;2022-08-19T05:08:38;22.90;;;17.85;;
23561;SDS011;11959;49.418;8.728;2022-08-19T05:11:13;22.55;;;17.58;;
23561;SDS011;11959;49.418;8.728;2022-08-19T05:13:40;19.58;;;15.70;;
23561;SDS011;11959;49.418;8.728;2022-08-19T05:16:09;22.33;;;17.83;;
23561;SDS011;11959;49.418;8.728;2022-08-19T05:18:35;24.10;;;17.40;;
23561;SDS011;11959;49.418;8.728;2022-08-19T05:21:20;23.15;;;17.80;;
23561;SDS011;11959;49.418;8.728;2022-08-19T05:24:05;23.77;;;19.23;;
23561;SDS011;11959;49.418;8.728;2022-08-19T05:26:38;21.27;;;17.50;;
23561;SDS011;11959;49.418;8.728;2022-08-19T05:29:05;19.85;;;16.58;;
23561;SDS011;11959;49.418;8.728;2022-08-19T05:31:35;24.08;;;18.80;;
23561;SDS011;11959;49.418;8.728;2022-08-19T05:34:01;22.73;;;17.35;;
23561;SDS011;11959;49.418;8.728;2022-08-19T05:36:29;22.67;;;17.33;;
23561;SDS011;11959;49.418;8.728;2022-08-19T05:39:04;23.52;;;19.13;;
23561;SDS011;11959;49.418;8.728;2022-08-19T05:41:29;20.98;;;17.70;;
23561;SDS011;11959;49.418;8.728;2022-08-19T05:43:56;23.35;;;18.95;;
23561;SDS011;11959;49.418;8.728;2022-08-19T05:46:23;21.90;;;17.50;;
23561;SDS011;11959;49.418;8.728;2022-08-19T05:48:49;22.02;;;17.52;;
23561;SDS011;11959;49.418;8.728;2022-08-19T05:51:15;21.42;;;16.90;;
23561;SDS011;11959;49.418;8.728;2022-08-19T05:53:42;21.67;;;16.63;;
23561;SDS011;11959;49.418;8.728;2022-08-19T05:56:11;23.15;;;18.35;;
23561;SDS011;11959;49.418;8.728;2022-08-19T05:58:40;19.63;;;16.55;;
23561;SDS011;11959;49.418;8.728;2022-08-19T06:01:17;27.90;;;21.33;;
23561;SDS011;11959;49.418;8.728;2022-08-19T06:03:43;25.65;;;20.20;;
23561;SDS011;11959;49.418;8.728;2022-08-19T06:06:10;27.40;;;20.27;;
23561;SDS011;11959;49.418;8.728;2022-08-19T06:08:38;23.88;;;19.30;;
23561;SDS011;11959;49.418;8.728;2022-08-19T06:11:14;25.27;;;19.10;;
23561;SDS011;11959;49.418;8.728;2022-08-19T06:13:48;23.75;;;18.70;;
23561;SDS011;11959;49.418;8.728;2022-08-19T06:16:18;22.83;;;17.73;;
23561;SDS011;11959;49.418;8.728;2022-08-19T06:18:56;24.42;;;18.23;;
23561;SDS011;11959;49.418;8.728;2022-08-19T06:21:26;24.48;;;17.02;;
23561;SDS011;11959;49.418;8.728;2022-08-19T06:23:53;21.40;;;17.27;;
23561;SDS011;11959;49.418;8.728;2022-08-19T06:26:19;24.30;;;18.83;;
23561;SDS011;11959;49.418;8.728;2022-08-19T06:28:46;28.13;;;19.60;;
23561;SDS011;11959;49.418;8.728;2022-08-19T06:31:16;21.85;;;18.10;;
23561;SDS011;11959;49.418;8.728;2022-08-19T06:33:46;21.67;;;18.00;;
23561;SDS011;11959;49.418;8.728;2022-08-19T06:36:16;22.23;;;18.95;;
23561;SDS011;11959;49.418;8.728;2022-08-19T06:38:42;22.65;;;18.25;;
23561;SDS011;11959;49.418;8.728;2022-08-19T06:41:08;27.67;;;21.63;;
23561;SDS011;11959;49.418;8.728;2022-08-19T06:43:35;21.90;;;18.60;;
23561;SDS011;11959;49.418;8.728;2022-08-19T06:46:01;23.70;;;18.15;;
23561;SDS011;11959;49.418;8.728;2022-08-19T06:48:28;20.02;;;16.85;;
23561;SDS011;11959;49.418;8.728;2022-08-19T06:50:54;26.75;;;20.70;;
23561;SDS011;11959;49.418;8.728;2022-08-19T06:53:20;23.52;;;19.50;;
23561;SDS011;11959;49.418;8.728;2022-08-19T06:55:46;21.13;;;17.55;;
23561;SDS011;11959;49.418;8.728;2022-08-19T06:58:12;24.27;;;20.20;;
23561;SDS011;11959;49.418;8.728;2022-08-19T07:00:39;25.33;;;20.08;;
23561;SDS011;11959;49.418;8.728;2022-08-19T07:03:05;24.08;;;19.13;;
23561;SDS011;11959;49.418;8.728;2022-08-19T07:05:30;23.63;;;18.80;;
23561;SDS011;11959;49.418;8.728;2022-08-19T07:07:56;23.52;;;18.77;;
23561;SDS011;11959;49.418;8.728;2022-08-19T07:10:22;23.75;;;17.92;;
23561;SDS011;11959;49.418;8.728;2022-08-19T07:12:48;23.02;;;18.88;;
23561;SDS011;11959;49.418;8.728;2022-08-19T07:15:15;22.55;;;18.15;;
23561;SDS011;11959;49.418;8.728;2022-08-19T07:17:41;22.40;;;17.90;;
23561;SDS011;11959;49.418;8.728;2022-08-19T07:20:08;18.65;;;16.10;;
23561;SDS011;11959;49.418;8.728;2022-08-19T07:22:35;21.95;;;17.55;;
23561;SDS011;11959;49.418;8.728;2022-08-19T07:25:05;21.60;;;16.55;;
23561;SDS011;11959;49.418;8.728;2022-08-19T07:27:32;20.45;;;16.70;;
23561;SDS011;11959;49.418;8.728;2022-08-19T07:29:58;18.73;;;15.35;;
23561;SDS011;11959;49.418;8.728;2022-08-19T07:32:24;19.13;;;15.77;;
23561;SDS011;11959;49.418;8.728;2022-08-19T07:34:51;23.60;;;18.02;;
23561;SDS011;11959;49.418;8.728;2022-08-19T07:37:17;19.13;;;16.60;;
23561;SDS011;11959;49.418;8.728;2022-08-19T07:39:43;20.85;;;15.88;;
23561;SDS011;11959;49.418;8.728;2022-08-19T07:42:09;17.98;;;14.80;;
23561;SDS011;11959;49.418;8.728;2022-08-19T07:44:36;20.48;;;17.15;;
23561;SDS011;11959;49.418;8.728;2022-08-19T07:47:02;18.80;;;15.13;;
23561;SDS011;11959;49.418;8.728;2022-08-19T07:49:29;16.83;;;14.90;;
23561;SDS011;11959;49.418;8.728;2022-08-19T07:51:59;17.48;;;14.73;;
23561;SDS011;11959;49.418;8.728;2022-08-19T07:54:29;19.73;;;16.17;;
23561;SDS011;11959;49.418;8.728;2022-08-19T07:56:59;18.67;;;15.85;;
23561;SDS011;11959;49.418;8.728;2022-08-19T07:59:25;18.92;;;15.07;;
23561;SDS011;11959;49.418;8.728;2022-08-19T08:01:53;19.00;;;16.35;;
23561;SDS011;11959;49.418;8.728;2022-08-19T08:04:20;18.88;;;15.50;;
23561;SDS011;11959;49.418;8.728;2022-08-19T08:07:21;18.67;;;15.30;;
23561;SDS011;11959;49.418;8.728;2022-08-19T08:10:06;20.80;;;15.90;;
23561;SDS011;11959;49.418;8.728;2022-08-19T08:12:34;15.75;;;14.05;;
23561;SDS011;11959;49.418;8.728;2022-08-19T08:15:09;17.35;;;15.23;;
23561;SDS011;11959;49.418;8.728;2022-08-19T08:17:41;18.90;;;14.60;;
23561;SDS011;11959;49.418;8.728;2022-08-19T08:20:07;17.02;;;14.70;;
23561;SDS011;11959;49.418;8.728;2022-08-19T08:22:33;17.80;;;14.55;;
23561;SDS011;11959;49.418;8.728;2022-08-19T08:25:19;17.45;;;13.95;;
23561;SDS011;11959;49.418;8.728;2022-08-19T08:27:47;18.17;;;14.95;;
23561;SDS011;11959;49.418;8.728;2022-08-19T08:30:21;17.42;;;14.40;;
23561;SDS011;11959;49.418;8.728;2022-08-19T08:32:49;16.65;;;13.90;;
23561;SDS011;11959;49.418;8.728;2022-08-19T08:35:17;15.48;;;12.50;;
23561;SDS011;11959;49.418;8.728;2022-08-19T08:37:45;14.45;;;12.80;;
23561;SDS011;11959;49.418;8.728;2022-08-19T08:43:28;17.92;;;12.80;;
23561;SDS011;11959;49.418;8.728;2022-08-19T08:46:04;15.38;;;11.75;;
23561;SDS011;11959;49.418;8.728;2022-08-19T08:51:43;14.45;;;11.48;;
23561;SDS011;11959;49.418;8.728;2022-08-19T08:54:14;14.32;;;11.35;;
23561;SDS011;11959;49.418;8.728;2022-08-19T08:56:43;12.18;;;10.70;;
23561;SDS011;11959;49.418;8.728;2022-08-19T08:59:20;12.45;;;11.13;;
23561;SDS011;11959;49.418;8.728;2022-08-19T09:01:51;12.02;;;10.30;;
23561;SDS011;11959;49.418;8.728;2022-08-19T09:04:16;12.05;;;10.80;;
23561;SDS011;11959;49.418;8.728;2022-08-19T09:06:46;14.43;;;10.23;;
23561;SDS011;11959;49.418;8.728;2022-08-19T09:09:16;10.75;;;9.60;;
23561;SDS011;11959;49.418;8.728;2022-08-19T09:12:07;12.63;;;10.23;;
23561;SDS011;11959;49.418;8.728;2022-08-19T09:15:03;11.65;;;10.45;;
23561;SDS011;11959;49.418;8.728;2022-08-19T09:17:32;10.90;;;9.07;;
23561;SDS011;11959;49.418;8.728;2022-08-19T09:22:42;11.07;;;9.05;;
23561;SDS011;11959;49.418;8.728;2022-08-19T09:25:09;8.48;;;7.55;;
23561;SDS011;11959;49.418;8.728;2022-08-19T09:27:38;10.40;;;8.75;;
23561;SDS011;11959;49.418;8.728;2022-08-19T09:30:05;9.35;;;8.13;;
23561;SDS011;11959;49.418;8.728;2022-08-19T09:32:32;8.70;;;7.53;;
23561;SDS011;11959;49.418;8.728;2022-08-19T09:34:58;9.70;;;8.10;;
23561;SDS011;11959;49.418;8.728;2022-08-19T09:37:25;11.00;;;8.55;;
23561;SDS011;11959;49.418;8.728;2022-08-19T09:39:51;10.32;;;8.63;;
23561;SDS011;11959;49.418;8.728;2022-08-19T09:42:17;11.13;;;8.70;;
23561;SDS011;11959;49.418;8.728;2022-08-19T09:44:43;9.98;;;8.38;;
23561;SDS011;11959;49.418;8.728;2022-08-19T09:47:10;7.70;;;6.88;;
23561;SDS011;11959;49.418;8.728;2022-08-19T09:49:37;8.43;;;6.97;;
23561;SDS011;11959;49.418;8.728;2022-08-19T09:52:04;7.22;;;6.43;;
23561;SDS011;11959;49.418;8.728;2022-08-19T09:54:31;7.82;;;6.93;;
23561;SDS011;11959;49.418;8.728;2022-08-19T09:56:58;8.50;;;6.85;;
23561;SDS011;11959;49.418;8.728;2022-08-19T09:59:27;7.97;;;7.07;;
23561;SDS011;11959;49.418;8.728;2022-08-19T10:01:54;7.95;;;6.43;;
23561;SDS011;11959;49.418;8.728;2022-08-19T10:04:20;7.22;;;6.53;;
23561;SDS011;11959;49.418;8.728;2022-08-19T10:06:46;7.88;;;7.18;;
23561;SDS011;11959;49.418;8.728;2022-08-19T10:09:14;7.70;;;6.93;;
23561;SDS011;11959;49.418;8.728;2022-08-19T10:11:43;7.85;;;6.57;;
23561;SDS011;11959;49.418;8.728;2022-08-19T10:14:14;7.57;;;6.22;;
23561;SDS011;11959;49.418;8.728;2022-08-19T10:16:41;5.97;;;5.43;;
23561;SDS011;11959;49.418;8.728;2022-08-19T10:19:07;6.13;;;5.53;;
23561;SDS011;11959;49.418;8.728;2022-08-19T10:21:35;6.63;;;5.93;;
23561;SDS011;11959;49.418;8.728;2022-08-19T10:24:01;6.75;;;5.53;;
23561;SDS011;11959;49.418;8.728;2022-08-19T10:26:30;9.57;;;6.50;;
23561;SDS011;11959;49.418;8.728;2022-08-19T10:28:58;8.35;;;6.75;;
23561;SDS011;11959;49.418;8.728;2022-08-19T10:31:26;7.35;;;6.05;;
23561;SDS011;11959;49.418;8.728;2022-08-19T10:33:54;6.03;;;5.43;;
23561;SDS011;11959;49.418;8.728;2022-08-19T10:36:23;7.45;;;6.15;;
23561;SDS011;11959;49.418;8.728;2022-08-19T10:38:52;6.43;;;5.30;;
23561;SDS011;11959;49.418;8.728;2022-08-19T10:41:22;6.47;;;5.78;;
23561;SDS011;11959;49.418;8.728;2022-08-19T10:43:56;8.73;;;5.40;;
23561;SDS011;11959;49.418;8.728;2022-08-19T10:46:24;6.80;;;4.95;;
23561;SDS011;11959;49.418;8.728;2022-08-19T10:48:52;5.85;;;5.22;;
23561;SDS011;11959;49.418;8.728;2022-08-19T10:51:18;5.80;;;4.97;;
23561;SDS011;11959;49.418;8.728;2022-08-19T10:54:03;5.72;;;5.10;;
23561;SDS011;11959;49.418;8.728;2022-08-19T10:56:29;5.40;;;4.88;;
23561;SDS011;11959;49.418;8.728;2022-08-19T10:59:14;5.20;;;4.70;;
23561;SDS011;11959;49.418;8.728;2022-08-19T11:01:42;6.28;;;4.65;;
23561;SDS011;11959;49.418;8.728;2022-08-19T11:04:09;5.40;;;4.88;;
23561;SDS011;11959;49.418;8.728;2022-08-19T11:06:39;5.43;;;4.82;;
23561;SDS011;11959;49.418;8.728;2022-08-19T11:09:07;5.88;;;5.28;;
23561;SDS011;11959;49.418;8.728;2022-08-19T11:11:33;5.82;;;5.30;;
23561;SDS011;11959;49.418;8.728;2022-08-19T11:14:05;6.22;;;5.63;;
23561;SDS011;11959;49.418;8.728;2022-08-19T11:16:34;7.30;;;5.68;;
23561;SDS011;11959;49.418;8.728;2022-08-19T11:19:00;7.10;;;5.95;;
23561;SDS011;11959;49.418;8.728;2022-08-19T11:21:31;6.53;;;5.72;;
23561;SDS011;11959;49.418;8.728;2022-08-19T11:23:59;6.28;;;5.70;;
23561;SDS011;11959;49.418;8.728;2022-08-19T11:26:27;6.32;;;5.72;;
23561;SDS011;11959;49.418;8.728;2022-08-19T11:28:54;6.53;;;5.95;;
23561;SDS011;11959;49.418;8.728;2022-08-19T11:31:22;6.65;;;6.05;;
23561;SDS011;11959;49.418;8.728;2022-08-19T11:33:50;8.30;;;6.30;;
23561;SDS011;11959;49.418;8.728;2022-08-19T11:36:17;6.47;;;5.88;;
23561;SDS011;11959;49.418;8.728;2022-08-19T11:38:44;7.15;;;6.45;;
23561;SDS011;11959;49.418;8.728;2022-08-19T11:41:14;6.80;;;6.10;;
23561;SDS011;11959;49.418;8.728;2022-08-19T11:43:41;8.40;;;6.82;;
23561;SDS011;11959;49.418;8.728;2022-08-19T11:46:08;7.18;;;6.47;;
23561;SDS011;11959;49.418;8.728;2022-08-19T11:48:35;7.90;;;7.07;;
23561;SDS011;11959;49.418;8.728;2022-08-19T11:51:23;8.10;;;7.30;;
23561;SDS011;11959;49.418;8.728;2022-08-19T11:53:49;7.85;;;7.15;;
23561;SDS011;11959;49.418;8.728;2022-08-19T11:56:16;7.78;;;7.03;;
23561;SDS011;11959;49.418;8.728;2022-08-19T11:58:42;7.50;;;6.85;;
23561;SDS011;11959;49.418;8.728;2022-08-19T12:01:09;7.82;;;7.15;;
23561;SDS011;11959;49.418;8.728;2022-08-19T12:03:37;8.07;;;7.28;;
23561;SDS011;11959;49.418;8.728;2022-08-19T12:06:06;7.90;;;7.20;;
23561;SDS011;11959;49.418;8.728;2022-08-19T12:08:38;8.45;;;7.53;;
23561;SDS011;11959;49.418;8.728;2022-08-19T12:11:04;7.05;;;6.40;;
23561;SDS011;11959;49.418;8.728;2022-08-19T12:13:33;7.22;;;6.53;;
23561;SDS011;11959;49.418;8.728;2022-08-19T12:15:59;7.60;;;6.90;;
23561;SDS011;11959;49.418;8.728;2022-08-19T12:18:31;7.70;;;6.80;;
23561;SDS011;11959;49.418;8.728;2022-08-19T12:20:57;6.93;;;6.32;;
23561;SDS011;11959;49.418;8.728;2022-08-19T12:23:25;7.43;;;6.65;;
23561;SDS011;11959;49.418;8.728;2022-08-19T12:25:51;7.85;;;7.05;;
23561;SDS011;11959;49.418;8.728;2022-08-19T12:28:18;7.57;;;6.88;;
23561;SDS011;11959;49.418;8.728;2022-08-19T12:30:45;7.72;;;7.03;;
23561;SDS011;11959;49.418;8.728;2022-08-19T12:33:11;7.55;;;6.82;;
23561;SDS011;11959;49.418;8.728;2022-08-19T12:35:42;7.68;;;6.88;;
23561;SDS011;11959;49.418;8.728;2022-08-19T12:38:10;10.40;;;7.40;;
23561;SDS011;11959;49.418;8.728;2022-08-19T12:40:36;7.43;;;6.80;;
23561;SDS011;11959;49.418;8.728;2022-08-19T12:43:02;7.53;;;6.75;;
23561;SDS011;11959;49.418;8.728;2022-08-19T12:45:28;7.85;;;7.15;;
23561;SDS011;11959;49.418;8.728;2022-08-19T12:47:54;8.18;;;7.40;;
23561;SDS011;11959;49.418;8.728;2022-08-19T12:50:20;8.75;;;7.95;;
23561;SDS011;11959;49.418;8.728;2022-08-19T12:52:46;8.15;;;7.45;;
23561;SDS011;11959;49.418;8.728;2022-08-19T12:55:13;9.75;;;7.97;;
23561;SDS011;11959;49.418;8.728;2022-08-19T12:57:39;8.25;;;7.53;;
23561;SDS011;11959;49.418;8.728;2022-08-19T13:02:36;8.48;;;7.70;;
23561;SDS011;11959;49.418;8.728;2022-08-19T13:05:03;8.25;;;7.55;;
23561;SDS011;11959;49.418;8.728;2022-08-19T13:07:31;8.18;;;7.47;;
23561;SDS011;11959;49.418;8.728;2022-08-19T13:09:57;7.57;;;6.97;;
23561;SDS011;11959;49.418;8.728;2022-08-19T13:12:22;7.97;;;7.28;;
23561;SDS011;11959;49.418;8.728;2022-08-19T13:14:51;8.48;;;7.45;;
23561;SDS011;11959;49.418;8.728;2022-08-19T13:17:20;8.45;;;7.65;;
23561;SDS011;11959;49.418;8.728;2022-08-19T13:19:47;8.55;;;6.72;;
23561;SDS011;11959;49.418;8.728;2022-08-19T13:22:12;6.60;;;5.55;;
23561;SDS011;11959;49.418;8.728;2022-08-19T13:24:38;7.50;;;6.80;;
23561;SDS011;11959;49.418;8.728;2022-08-19T13:27:04;7.95;;;7.22;;
23561;SDS011;11959;49.418;8.728;2022-08-19T13:29:29;8.35;;;7.40;;
23561;SDS011;11959;49.418;8.728;2022-08-19T13:32:14;8.38;;;7.57;;
23561;SDS011;11959;49.418;8.728;2022-08-19T13:34:58;7.57;;;6.97;;
23561;SDS011;11959;49.418;8.728;2022-08-19T13:37:23;7.88;;;7.20;;
23561;SDS011;11959;49.418;8.728;2022-08-19T13:40:08;7.40;;;6.70;;
23561;SDS011;11959;49.418;8.728;2022-08-19T13:42:40;8.05;;;7.35;;
23561;SDS011;11959;49.418;8.728;2022-08-19T13:45:14;8.65;;;6.30;;
23561;SDS011;11959;49.418;8.728;2022-08-19T13:47:41;7.70;;;7.00;;
23561;SDS011;11959;49.418;8.728;2022-08-19T13:50:13;7.15;;;6.53;;
23561;SDS011;11959;49.418;8.728;2022-08-19T13:52:41;7.00;;;6.30;;
23561;SDS011;11959;49.418;8.728;2022-08-19T13:55:08;7.82;;;7.13;;
23561;SDS011;11959;49.418;8.728;2022-08-19T13:57:35;7.93;;;7.22;;
23561;SDS011;11959;49.418;8.728;2022-08-19T14:00:03;6.15;;;5.65;;
23561;SDS011;11959;49.418;8.728;2022-08-19T14:02:29;6.20;;;5.70;;
23561;SDS011;11959;49.418;8.728;2022-08-19T14:04:55;6.18;;;5.68;;
23561;SDS011;11959;49.418;8.728;2022-08-19T14:07:20;6.53;;;5.90;;
23561;SDS011;11959;49.418;8.728;2022-08-19T14:09:48;6.20;;;5.70;;
23561;SDS011;11959;49.418;8.728;2022-08-19T14:12:18;6.28;;;5.68;;
23561;SDS011;11959;49.418;8.728;2022-08-19T14:14:45;6.07;;;5.47;;
23561;SDS011;11959;49.418;8.728;2022-08-19T14:17:12;5.97;;;5.35;;
23561;SDS011;11959;49.418;8.728;2022-08-19T14:19:37;6.93;;;6.03;;
23561;SDS011;11959;49.418;8.728;2022-08-19T14:22:03;5.63;;;5.13;;
23561;SDS011;11959;49.418;8.728;2022-08-19T14:24:30;6.15;;;5.50;;
23561;SDS011;11959;49.418;8.728;2022-08-19T14:26:57;6.50;;;5.18;;
23561;SDS011;11959;49.418;8.728;2022-08-19T14:29:23;6.00;;;5.50;;
23561;SDS011;11959;49.418;8.728;2022-08-19T14:31:48;6.20;;;5.60;;
23561;SDS011;11959;49.418;8.728;2022-08-19T14:34:14;6.03;;;5.45;;
23561;SDS011;11959;49.418;8.728;2022-08-19T14:36:39;6.32;;;5.72;;
23561;SDS011;11959;49.418;8.728;2022-08-19T14:39:06;6.43;;;5.85;;
23561;SDS011;11959;49.418;8.728;2022-08-19T14:41:33;6.43;;;5.57;;
23561;SDS011;11959;49.418;8.728;2022-08-19T14:43:59;6.13;;;5.53;;
23561;SDS011;11959;49.418;8.728;2022-08-19T14:46:26;5.93;;;5.43;;
23561;SDS011;11959;49.418;8.728;2022-08-19T14:48:53;6.35;;;5.10;;
23561;SDS011;11959;49.418;8.728;2022-08-19T14:51:20;5.82;;;5.22;;